• Join FlightAware (Why Join?)
  • Login
  • US Flag 
08:13AM EDT


 

Airport Tracker/Info


-or-


 

Live Flight TrackerFlight Track Log ✈ DAL1670 ✈ 07-May-2013 ✈ KATL - KCHS

Flight Track Log - Related Links

Times and Time Zones

All times are in EDT time to prevent confusion due to time zone crossing. See the DAL1670 flight status page for this flight to view local times or setup timezone preferences in your user account.

Time Position Orientation Groundspeed Altitude Reporting Facility
EDT Latitude Longitude Course Direction KTS MPH feet Rate Location/Type
08:20AM 33.6167 -84.4833 73° East 202 232 2,700  Level Atlanta TRACON
08:22AM 33.5167 -84.5833 220° Southwest 283 326 7,100 1,980 Climbing Atlanta TRACON
08:23AM 33.5408 -83.7971 90° East  Level Estimated
08:23AM 33.4514 -84.4522 121° Southeast 272 313 10,700  Level Atlanta Center
08:24AM 33.5213 -83.6711 86° East  Level Estimated
08:24AM 33.4536 -84.3325 89° East 324 373 12,200  Level Atlanta Center
08:25AM 33.5527 -83.5486 73° East  Level FlightAware Approximate
08:25AM 33.4831 -84.2181 73° East 347 399 14,400  Level Atlanta Center
08:26AM 33.5125 -84.0986 73° East 361 415 16,000 1,620 Climbing Atlanta Center
08:27AM 33.5333 -83.9692 79° East 379 436 17,700 1,680 Climbing Atlanta Center
08:28AM 33.5542 -83.8369 79° East 391 450 19,400 1,680 Climbing Atlanta Center
08:29AM 33.5747 -83.7022 80° East 410 472 21,100 1,620 Climbing Atlanta Center
08:30AM 33.5931 -83.5625 81° East 417 480 22,700 900 Climbing Atlanta Center
08:31AM 33.6111 -83.4203 81° East 417 480 23,000 120 Climbing Atlanta Center
08:32AM 33.6269 -83.2803 82° East 429 494 23,000  Level Atlanta Center
08:33AM 33.6386 -83.1331 85° East 429 494 23,000  Level Atlanta Center
08:34AM 33.6458 -82.9858 87° East 429 494 23,000  Level Atlanta Center
08:35AM 33.6506 -82.8436 88° East 429 494 23,000  Level Atlanta Center
08:36AM 33.6514 -82.7161 90° East 424 488 23,000  Level Atlanta Center
08:37AM 33.6561 -82.5764 88° East 424 488 23,000  Level Atlanta Center
08:38AM 33.6461 -82.4392 95° East 419 482 23,000  Level Atlanta Center
08:39AM 33.6294 -82.2997 98° East 419 482 23,000  Level Atlanta Center
08:41AM 33.5939 -82.0722 101° East 419 482 23,000  Level Jacksonville Center
08:42AM 33.5636 -81.9378 105° East 414 476 23,000  Level Jacksonville Center
08:43AM 33.5333 -81.8061 105° East 409 471 23,000  Level Jacksonville Center
08:44AM 33.5028 -81.6744 106° East 409 471 23,000  Level Jacksonville Center
08:45AM 33.4639 -81.5381 109° East 416 479 23,000  Level Jacksonville Center
08:46AM 33.4208 -81.4119 112° Southeast 416 479 23,000 -120 Level Jacksonville Center
08:47AM 33.3753 -81.2808 113° Southeast 422 486 22,800 -1,080 Descending Jacksonville Center
08:48AM 33.3319 -81.1547 112° Southeast 422 486 20,900 -2,280 Descending Jacksonville Center
08:49AM 33.2925 -81.0339 111° Southeast 407 468 18,300 -2,760 Descending Jacksonville Center
08:50AM 33.2553 -80.9128 110° East 394 453 15,400 -2,820 Descending Jacksonville Center
08:51AM 33.2158 -80.7969 112° Southeast 383 441 12,700 -1,980 Descending Jacksonville Center
08:52AM 33.1744 -80.6864 114° Southeast 377 434 11,500 -900 Descending Jacksonville Center
08:53AM 33.1350 -80.5881 116° Southeast 349 402 10,900 -1,200 Descending Jacksonville Center
08:54AM 33.1042 -80.5047 114° Southeast 307 353 9,100 -1,980 Descending Jacksonville Center
08:55AM 33.0692 -80.4236 117° Southeast 283 326 7,000 -2,100 Descending Jacksonville Center
08:56AM 33.0447 -80.3400 109° East 269 310 5,000 -2,160 Descending Jacksonville Center
08:57AM 33.0347 -80.2561 98° East 258 297 2,700 -1,800 Descending Jacksonville Center
08:58AM 33.0225 -80.1722 100° East 247 284 1,500 -1,200 Descending Jacksonville Center